Danville, CA (94506)

3:34 PM PST on December 19, 2014 (GMT -0800)
FSTC - San Ramon | Change Station
CLOSE
Current Station
Personal Weather Station
Location: San Ramon, CA
Elevation: 468 ft
Nearby Weather Stations

Elev 468 ft 37.78 °N, 121.97 °W | Updated 13 minutes ago

Overcast
Overcast
57.8 °F
Feels Like 57.8 °F
N
0.0
Wind Variable Wind from South
Gusts 0.0 mph

Today
High -- | Low -- °F
--% Chance of Precip.
Yesterday
High -- | Low -- °F
Precip. -- in
7:18 AM 4:51 PM
Waning Crescent, 5% visible
Pressure 30.12 in
Visibility 10.0 miles
Clouds Few 2900 ft
Mostly Cloudy 3600 ft
Overcast 11000 ft
Dew Point 55 °F
Humidity 91%
Rainfall 0.04 in
Snow Depth Not available.
UV 0.0 out of 12
Pollen 2.00 out of 12
Air Quality Not available.
Flu Activity Not available.
METAR KLVK 192253Z 02005KT 10SM FEW029 BKN036 OVC110 14/12 A3012 RMK AO2 RAE46 SLP197 P0002 T01440122

More Conditions Fewer Conditions

Pressure 30.12 in
Visibility 10.0 miles
Clouds Few 2900 ft
Mostly Cloudy 3600 ft
Overcast 11000 ft
Dew Point 55 °F
Humidity 91%
Rainfall 0.04 in
Snow Depth Not available.
UV 0.0 out of 12
Pollen 2.00 out of 12
Air Quality Not available.
Flu Activity Not available.
METAR KLVK 192253Z 02005KT 10SM FEW029 BKN036 OVC110 14/12 A3012 RMK AO2 RAE46 SLP197 P0002 T01440122

More Conditions Fewer Conditions

10-Day Weather Forecast

Almanac

Astronomy

Dec. 19, 2014 Rise Set
Actual Time
Civil Twilight
Nautical Twilight
Astronomical Twilight
Moon
Length of Visible Light
Length of Day
Tomorrow will be .
, % of the Moon is Illuminated

Today's Extremes

State Highs State Lows

Community

WunderPhotos

Upload Photos

1,779,073 photos uploaded!

WunderBlogs® & News

Nearby

Air Quality

  Air Quality AQ Index Pollutant
Not available.

Snow Depth

Station Depth Elevation

Earthquake Activity

City Distance Mag. Time & Date
Minimum magnitude displayed is 2.5.

Coastal Water Temperatures

Place Temperature

Nearby Weather Stations